Time;durP1;ratioP1;P1;durP2;ratioP2;P2;SDS_P1;SDS_P2;PMS_P1;PMS_P2;Temp;Humidity;BMP_temperature;BMP_pressure;BME280_temperature;BME280_humidity;BME280_pressure;Samples;Min_cycle;Max_cycle;Signal;HPM_P1;HPM_P2
2022/11/06 00:02:10;;;;;;;0.10;0.10;;;;;;;3.62;100.00;96707.09;4892809;29;20036;-75
2022/11/06 00:06:46;;;;;;;0.10;0.10;;;;;;;3.60;100.00;96695.91;4895790;29;20160;-74
2022/11/06 00:08:02;;;;;;;0.10;0.10;;;;;;;3.60;100.00;96703.84;4894741;29;20216;-75
2022/11/06 00:10:47;;;;;;;0.10;0.10;;;;;;;3.70;100.00;96700.00;4895708;29;20496;-74
2022/11/06 00:13:33;;;;;;;0.10;0.10;;;;;;;3.77;100.00;96687.59;4895914;29;20143;-74
2022/11/06 00:16:19;;;;;;;0.10;0.10;;;;;;;3.88;100.00;96690.47;4893786;29;20571;-75
2022/11/06 00:19:06;;;;;;;0.10;0.10;;;;;;;3.98;100.00;96691.94;4895413;29;20858;-75
2022/11/06 00:21:52;;;;;;;0.10;0.10;;;;;;;4.13;100.00;96688.09;4894786;29;20139;-75
2022/11/06 00:24:38;;;;;;;0.10;0.10;;;;;;;4.24;100.00;96680.56;4893777;29;20052;-74
2022/11/06 00:27:24;;;;;;;0.10;0.10;;;;;;;4.36;100.00;96686.88;4894865;29;20151;-74
2022/11/06 00:30:10;;;;;;;0.10;0.10;;;;;;;4.46;100.00;96680.16;4897313;29;20040;-76
2022/11/06 00:32:56;;;;;;;0.10;0.10;;;;;;;4.55;100.00;96669.34;4899286;29;20451;-74
2022/11/06 00:35:42;;;;;;;0.10;0.10;;;;;;;4.70;100.00;96676.06;4900295;29;20488;-74
2022/11/06 00:38:28;;;;;;;0.10;0.10;;;;;;;4.85;100.00;96682.97;4897453;29;20493;-76
2022/11/06 00:41:15;;;;;;;0.10;0.10;;;;;;;4.87;100.00;96681.72;4899241;29;20765;-75
2022/11/06 00:44:01;;;;;;;0.10;0.10;;;;;;;4.91;100.00;96677.66;4898458;29;20511;-75
2022/11/06 00:46:47;;;;;;;0.10;0.10;;;;;;;4.93;100.00;96680.09;4898000;29;20059;-75
2022/11/06 00:49:33;;;;;;;0.20;0.20;;;;;;;5.04;100.00;96684.75;4898923;29;20573;-75
2022/11/06 00:52:19;;;;;;;0.10;0.10;;;;;;;4.99;100.00;96692.53;4896259;29;20135;-75
2022/11/06 00:55:05;;;;;;;0.20;0.20;;;;;;;4.96;100.00;96690.28;4895516;29;20055;-75
2022/11/06 00:57:51;;;;;;;0.10;0.10;;;;;;;4.99;100.00;96690.69;4899013;29;20070;-75
2022/11/06 01:00:37;;;;;;;0.10;0.10;;;;;;;5.00;100.00;96691.50;4898286;29;20048;-75
2022/11/06 01:03:22;;;;;;;0.10;0.10;;;;;;;5.03;100.00;96686.59;4896350;29;20040;-75
2022/11/06 01:06:11;;;;;;;0.10;0.10;;;;;;;5.02;100.00;96692.09;4898145;29;20127;-76
2022/11/06 01:08:57;;;;;;;0.10;0.10;;;;;;;5.02;100.00;96684.16;4897585;29;20066;-75
2022/11/06 01:11:46;;;;;;;0.10;0.10;;;;;;;4.96;100.00;96680.50;4898941;29;20040;-74
2022/11/06 01:14:32;;;;;;;0.15;0.15;;;;;;;4.96;100.00;96685.78;4899330;29;20044;-75
2022/11/06 01:17:18;;;;;;;0.20;0.20;;;;;;;4.92;100.00;96692.53;4895261;29;20054;-76
2022/11/06 01:20:04;;;;;;;0.20;0.20;;;;;;;5.00;100.00;96697.63;4898131;29;20246;-75
2022/11/06 01:22:50;;;;;;;0.10;0.10;;;;;;;5.10;100.00;96691.88;4882622;29;20382;-76
2022/11/06 01:25:36;;;;;;;0.10;0.10;;;;;;;5.09;100.00;96694.75;4898943;29;20086;-75
2022/11/06 01:28:22;;;;;;;0.10;0.10;;;;;;;5.02;100.00;96686.81;4898606;29;20343;-75
2022/11/06 01:31:14;;;;;;;0.20;0.20;;;;;;;4.98;100.00;96682.94;4896741;29;20056;-76
2022/11/06 01:34:01;;;;;;;0.10;0.10;;;;;;;4.89;100.00;96671.72;4899271;28;20100;-76
2022/11/06 01:36:47;;;;;;;0.10;0.10;;;;;;;4.90;100.00;96672.53;4899010;29;20051;-76
2022/11/06 01:39:32;;;;;;;0.10;0.10;;;;;;;4.83;100.00;96674.41;4898737;29;20100;-76
2022/11/06 01:42:20;;;;;;;0.10;0.10;;;;;;;4.87;100.00;96673.78;4893668;29;20040;-76
2022/11/06 01:45:28;;;;;;;0.10;0.10;;;;;;;4.90;100.00;96670.72;4897282;29;20319;-76
2022/11/06 01:48:16;;;;;;;0.10;0.10;;;;;;;4.97;100.00;96668.03;4897447;29;20075;-73
2022/11/06 01:51:02;;;;;;;0.10;0.10;;;;;;;5.06;100.00;96658.00;4897509;29;20142;-74
2022/11/06 01:53:49;;;;;;;0.10;0.10;;;;;;;5.03;100.00;96648.66;4895620;29;20294;-73
2022/11/06 01:56:37;;;;;;;0.10;0.10;;;;;;;5.10;100.00;96654.75;4897905;29;20146;-73
2022/11/06 01:59:26;;;;;;;0.10;0.10;;;;;;;5.14;100.00;96653.31;4894884;29;20123;-75
2022/11/06 02:02:15;;;;;;;0.10;0.10;;;;;;;5.15;100.00;96647.00;4897016;29;20111;-73
2022/11/06 02:05:01;;;;;;;0.10;0.10;;;;;;;5.13;100.00;96641.06;4897112;29;20048;-74
2022/11/06 02:07:47;;;;;;;0.10;0.10;;;;;;;5.09;100.00;96633.75;4897642;29;20408;-73
2022/11/06 02:10:33;;;;;;;0.10;0.10;;;;;;;5.13;100.00;96638.41;4897076;29;20559;-75
2022/11/06 02:13:57;;;;;;;0.10;0.10;;;;;;;5.17;100.00;96634.31;4895546;29;20439;-75
2022/11/06 02:17:07;;;;;;;0.10;0.10;;;;;;;5.14;100.00;96640.06;4897744;29;20060;-74
2022/11/06 02:20:17;;;;;;;0.10;0.10;;;;;;;5.10;100.00;96645.97;4896181;29;20874;-74
2022/11/06 02:23:26;;;;;;;0.10;0.10;;;;;;;5.12;100.00;96641.28;4894807;29;20268;-74
2022/11/06 02:26:44;;;;;;;0.10;0.10;;;;;;;5.13;100.00;96638.41;4895884;29;20071;-74
2022/11/06 02:29:37;;;;;;;0.10;0.10;;;;;;;5.10;100.00;96625.56;4895964;29;20398;-75
2022/11/06 02:32:47;;;;;;;0.10;0.10;;;;;;;4.98;100.00;96617.47;4896265;29;20052;-75
2022/11/06 02:35:46;;;;;;;0.17;0.17;;;;;;;4.95;100.00;96625.00;4896247;29;20040;-74
2022/11/06 02:38:47;;;;;;;0.10;0.10;;;;;;;4.96;100.00;96626.63;4896847;29;20397;-75
2022/11/06 02:41:38;;;;;;;0.10;0.10;;;;;;;4.95;100.00;96619.69;4895937;29;20746;-74
2022/11/06 02:44:28;;;;;;;0.10;0.10;;;;;;;4.84;100.00;96615.88;4907786;29;20051;-73
2022/11/06 02:47:15;;;;;;;0.10;0.10;;;;;;;4.99;100.00;96618.28;4897834;29;20066;-75
2022/11/06 02:50:32;;;;;;;0.10;0.10;;;;;;;5.04;100.00;96613.94;4896615;29;20048;-77
2022/11/06 02:53:29;;;;;;;0.10;0.10;;;;;;;5.07;100.00;96630.50;4898146;28;20723;-75
2022/11/06 02:56:21;;;;;;;0.10;0.10;;;;;;;5.17;100.00;96639.63;4895765;29;20119;-76
2022/11/06 02:59:17;;;;;;;;;;;;;;;5.15;100.00;96641.69;4896335;29;20044;-77
2022/11/06 03:02:07;;;;;;;0.10;0.10;;;;;;;4.99;100.00;96628.88;4894453;29;20439;-75
2022/11/06 03:05:07;;;;;;;0.10;0.10;;;;;;;4.95;100.00;96622.34;4897348;29;20103;-75
2022/11/06 03:08:09;;;;;;;0.10;0.10;;;;;;;4.94;100.00;96634.00;4896087;29;20357;-76
2022/11/06 03:11:21;;;;;;;0.10;0.10;;;;;;;4.86;100.00;96636.88;4896552;29;20564;-75
2022/11/06 03:14:20;;;;;;;0.10;0.10;;;;;;;4.91;100.00;96634.41;4896674;29;20052;-75
2022/11/06 03:17:12;;;;;;;0.15;0.15;;;;;;;4.91;100.00;96635.22;4896166;29;20478;-75
2022/11/06 03:20:17;;;;;;;0.20;0.20;;;;;;;4.94;100.00;96632.16;4896510;29;20632;-77
2022/11/06 03:23:21;;;;;;;0.10;0.10;;;;;;;4.90;100.00;96628.31;4897312;29;20071;-76
2022/11/06 03:26:19;;;;;;;0.10;0.10;;;;;;;4.85;100.00;96629.94;4898102;29;20136;-76
2022/11/06 03:29:30;;;;;;;0.10;0.10;;;;;;;4.82;100.00;96619.72;4896412;28;20052;-76
2022/11/06 03:32:17;;;;;;;0.10;0.10;;;;;;;4.70;100.00;96617.72;4895167;29;20235;-75
2022/11/06 03:35:11;;;;;;;0.10;0.10;;;;;;;4.54;100.00;96617.34;4896084;29;20100;-76
2022/11/06 03:38:09;;;;;;;0.10;0.10;;;;;;;4.44;100.00;96618.59;4894352;29;20044;-75
2022/11/06 03:41:03;;;;;;;0.15;0.15;;;;;;;4.45;100.00;96624.72;4897388;29;20048;-75
2022/11/06 03:43:53;;;;;;;0.20;0.20;;;;;;;4.39;100.00;96610.44;4894171;29;20116;-77
2022/11/06 03:46:47;;;;;;;0.10;0.10;;;;;;;4.30;100.00;96597.63;4895701;29;20503;-76
2022/11/06 03:49:40;;;;;;;0.10;0.10;;;;;;;4.29;100.00;96596.81;4894111;29;20551;-74
2022/11/06 03:52:34;;;;;;;0.10;0.10;;;;;;;4.39;100.00;96593.72;4895061;29;20044;-74
2022/11/06 03:55:37;;;;;;;0.20;0.20;;;;;;;4.40;100.00;96600.66;4896227;29;20221;-75
2022/11/06 03:58:29;;;;;;;0.10;0.10;;;;;;;4.50;100.00;96597.56;4896251;29;20126;-75
2022/11/06 04:01:21;;;;;;;0.10;0.10;;;;;;;4.48;100.00;96588.00;4898177;28;20048;-76
2022/11/06 04:04:22;;;;;;;0.10;0.10;;;;;;;4.55;100.00;96577.41;4895672;29;20055;-75
2022/11/06 04:07:12;;;;;;;0.20;0.20;;;;;;;4.51;100.00;96585.94;4899575;29;20694;-75
2022/11/06 04:16:12;;;;;;;0.30;0.20;;;;;;;4.55;100.00;96618.97;4901215;29;20147;-76
2022/11/06 04:18:59;;;;;;;0.10;0.10;;;;;;;4.46;100.00;96616.56;4897459;29;20054;-75
2022/11/06 04:22:16;;;;;;;0.10;0.10;;;;;;;4.45;100.00;96622.88;4913390;29;20377;-76
2022/11/06 04:28:42;;;;;;;0.10;0.10;;;;;;;4.43;100.00;96637.34;4898595;29;20052;-75
2022/11/06 04:31:39;;;;;;;0.10;0.10;;;;;;;4.43;100.00;96629.38;4897793;29;20047;-76
2022/11/06 04:34:37;;;;;;;0.10;0.10;;;;;;;4.35;100.00;96609.22;4889496;29;20071;-76
2022/11/06 04:37:23;;;;;;;0.10;0.10;;;;;;;4.31;100.00;96608.00;4898655;29;20889;-75
2022/11/06 04:40:24;;;;;;;0.17;0.17;;;;;;;4.30;100.00;96610.88;4900267;29;20058;-76
2022/11/06 04:43:25;;;;;;;0.20;0.20;;;;;;;4.33;100.00;96621.84;4900172;29;20048;-76
2022/11/06 04:46:17;;;;;;;0.10;0.10;;;;;;;4.31;100.00;96621.25;4899684;29;20486;-76
2022/11/06 04:49:05;;;;;;;0.10;0.10;;;;;;;4.36;100.00;96616.16;4898483;29;20547;-75
2022/11/06 04:51:52;;;;;;;0.20;0.20;;;;;;;4.38;100.00;96616.78;4910868;29;20036;-76
2022/11/06 04:54:38;;;;;;;0.20;0.20;;;;;;;4.47;100.00;96618.19;4897919;29;20043;-76
2022/11/06 04:57:25;;;;;;;0.10;0.10;;;;;;;4.51;100.00;96602.66;4900797;29;20127;-75
2022/11/06 05:00:14;;;;;;;0.10;0.10;;;;;;;4.37;100.00;96604.53;4899109;29;20335;-76
2022/11/06 05:03:00;;;;;;;0.10;0.10;;;;;;;4.41;100.00;96605.75;4900554;29;20138;-76
2022/11/06 05:05:46;;;;;;;0.10;0.10;;;;;;;4.47;100.00;96596.16;4912480;29;20155;-75
2022/11/06 05:08:32;;;;;;;0.10;0.10;;;;;;;4.46;100.00;96599.84;4898336;29;20055;-74
2022/11/06 05:11:18;;;;;;;0.10;0.10;;;;;;;4.60;100.00;96595.34;4899662;29;20487;-76
2022/11/06 05:14:04;;;;;;;0.10;0.10;;;;;;;4.65;100.00;96591.03;4898464;29;20612;-76
2022/11/06 05:16:50;;;;;;;0.20;0.10;;;;;;;4.68;100.00;96592.47;4899569;29;20566;-75
2022/11/06 05:19:35;;;;;;;0.10;0.10;;;;;;;4.72;100.00;96583.06;4897753;29;20259;-75
2022/11/06 05:25:31;;;;;;;0.15;0.15;;;;;;;4.69;100.00;96568.38;4912330;29;20062;-76
2022/11/06 05:28:17;;;;;;;0.17;0.17;;;;;;;4.63;100.00;96561.25;4897182;29;20040;-76
2022/11/06 05:31:03;;;;;;;0.10;0.10;;;;;;;4.55;100.00;96565.97;4897177;29;20340;-76
2022/11/06 05:33:49;;;;;;;0.10;0.10;;;;;;;4.52;100.00;96561.09;4898192;29;20044;-75
2022/11/06 05:36:35;;;;;;;0.10;0.10;;;;;;;4.46;100.00;96547.66;4899242;29;20078;-75
2022/11/06 05:39:21;;;;;;;0.10;0.10;;;;;;;4.49;100.00;96549.06;4898283;29;20180;-76
2022/11/06 05:42:07;;;;;;;0.10;0.10;;;;;;;4.53;100.00;96546.84;4899123;29;20496;-75
2022/11/06 05:44:52;;;;;;;0.10;0.10;;;;;;;4.50;100.00;96542.75;4899010;29;20459;-76
2022/11/06 05:47:41;;;;;;;0.10;0.10;;;;;;;4.49;100.00;96543.75;4897440;29;20043;-76
2022/11/06 05:50:27;;;;;;;0.10;0.10;;;;;;;4.53;100.00;96537.03;4897384;29;20048;-77
2022/11/06 05:53:13;;;;;;;0.10;0.10;;;;;;;4.41;100.00;96530.75;4896786;29;20685;-76
2022/11/06 05:55:59;;;;;;;0.10;0.10;;;;;;;4.36;100.00;96528.72;4897934;29;20060;-76
2022/11/06 05:58:45;;;;;;;0.10;0.10;;;;;;;4.21;100.00;96508.78;4900553;29;20048;-75
2022/11/06 06:01:31;;;;;;;0.10;0.10;;;;;;;4.18;100.00;96508.16;4898111;29;20526;-76
2022/11/06 06:04:17;;;;;;;0.17;0.17;;;;;;;4.09;100.00;96498.81;4898996;29;20048;-76
2022/11/06 06:07:03;;;;;;;0.10;0.10;;;;;;;4.06;100.00;96501.88;4899538;29;20351;-75
2022/11/06 06:09:49;;;;;;;0.10;0.10;;;;;;;4.09;100.00;96498.81;4897128;29;20048;-76
2022/11/06 06:12:34;;;;;;;0.10;0.10;;;;;;;4.05;100.00;96513.50;4896627;29;20102;-75
2022/11/06 06:15:20;;;;;;;0.10;0.10;;;;;;;4.13;100.00;96509.81;4894765;29;20087;-75
2022/11/06 06:18:08;;;;;;;0.15;0.15;;;;;;;4.21;100.00;96498.19;4897018;29;20295;-76
2022/11/06 06:20:56;;;;;;;0.10;0.10;;;;;;;4.21;100.00;96499.00;4898013;29;20040;-77
2022/11/06 06:23:42;;;;;;;0.10;0.10;;;;;;;4.23;100.00;96490.84;4897844;29;20076;-75
2022/11/06 06:26:28;;;;;;;0.10;0.10;;;;;;;4.23;100.00;96493.50;4897071;29;20155;-76
2022/11/06 06:29:15;;;;;;;0.10;0.10;;;;;;;4.24;100.00;96488.00;4897367;29;20321;-75
2022/11/06 06:32:02;;;;;;;0.10;0.10;;;;;;;4.22;100.00;96492.69;4898404;29;20748;-77
2022/11/06 06:34:48;;;;;;;0.10;0.10;;;;;;;4.24;100.00;96484.53;4897292;29;20416;-75
2022/11/06 06:37:34;;;;;;;0.10;0.10;;;;;;;4.21;100.00;96483.13;4898343;29;20436;-76
2022/11/06 06:40:20;;;;;;;0.10;0.10;;;;;;;4.14;100.00;96482.31;4897965;29;20040;-76
2022/11/06 06:43:24;;;;;;;0.10;0.10;;;;;;;3.98;100.00;96474.81;4898409;29;20040;-76
2022/11/06 06:46:10;;;;;;;0.10;0.10;;;;;;;4.04;100.00;96485.38;4897735;29;20048;-76
2022/11/06 06:48:55;;;;;;;0.10;0.10;;;;;;;3.94;100.00;96486.81;4889701;29;20574;-75
2022/11/06 06:51:41;;;;;;;0.13;0.13;;;;;;;3.99;100.00;96476.44;4898231;29;20051;-74
2022/11/06 06:54:27;;;;;;;0.10;0.10;;;;;;;4.02;100.00;96478.66;4897981;29;20131;-76
2022/11/06 06:57:13;;;;;;;0.10;0.10;;;;;;;4.00;100.00;96467.47;4898686;29;20515;-76
2022/11/06 06:59:59;;;;;;;0.10;0.10;;;;;;;4.03;100.00;96467.84;4897500;29;20429;-75
2022/11/06 07:02:44;;;;;;;0.10;0.10;;;;;;;4.11;100.00;96465.00;4897943;29;20047;-75
2022/11/06 07:05:30;;;;;;;0.10;0.10;;;;;;;3.99;100.00;96464.00;4897037;29;20647;-75
2022/11/06 07:08:16;;;;;;;0.15;0.15;;;;;;;4.07;100.00;96479.69;4896586;29;20092;-77
2022/11/06 07:11:05;;;;;;;0.10;0.10;;;;;;;4.16;100.00;96481.09;4898013;29;21093;-76
2022/11/06 07:13:50;;;;;;;0.10;0.10;;;;;;;4.18;100.00;96473.72;4896854;29;20147;-77
2022/11/06 07:16:36;;;;;;;0.10;0.10;;;;;;;4.14;100.00;96475.19;4898556;29;20582;-76
2022/11/06 07:19:22;;;;;;;0.10;0.10;;;;;;;4.14;100.00;96463.78;4896219;29;20780;-75
2022/11/06 07:22:08;;;;;;;0.10;0.10;;;;;;;4.22;100.00;96481.28;4898022;29;20047;-76
2022/11/06 07:24:54;;;;;;;0.10;0.10;;;;;;;4.34;100.00;96479.59;4895477;29;20047;-77
2022/11/06 07:27:40;;;;;;;0.10;0.10;;;;;;;4.30;100.00;96478.41;4897801;29;20044;-75
2022/11/06 07:30:26;;;;;;;0.20;0.10;;;;;;;4.36;100.00;96486.34;4896786;29;20044;-76
2022/11/06 07:33:12;;;;;;;0.10;0.10;;;;;;;4.32;100.00;96492.25;4898936;29;20554;-76
2022/11/06 07:36:03;;;;;;;0.10;0.10;;;;;;;4.39;100.00;96491.22;4897254;29;20052;-76
2022/11/06 07:38:49;;;;;;;0.10;0.10;;;;;;;4.34;100.00;96498.97;4897252;29;20090;-75
2022/11/06 07:41:36;;;;;;;0.10;0.10;;;;;;;4.30;100.00;96505.72;4899117;29;20047;-76
2022/11/06 07:44:22;;;;;;;0.15;0.10;;;;;;;4.38;100.00;96508.13;4556337;29;10000209;-76
2022/11/06 07:47:08;;;;;;;0.10;0.10;;;;;;;4.50;100.00;96513.59;4897374;29;20056;-76
2022/11/06 07:49:54;;;;;;;0.10;0.10;;;;;;;4.55;100.00;96524.38;4898143;29;20048;-78
2022/11/06 07:52:40;;;;;;;0.17;0.17;;;;;;;4.53;100.00;96526.44;4896568;29;20044;-76
2022/11/06 07:55:26;;;;;;;0.13;0.13;;;;;;;4.50;100.00;96521.53;4899751;29;20059;-76
2022/11/06 07:58:12;;;;;;;0.10;0.10;;;;;;;4.53;100.00;96515.84;4896860;29;20107;-77
2022/11/06 08:00:58;;;;;;;0.20;0.20;;;;;;;4.54;100.00;96509.50;4898583;29;20055;-76
2022/11/06 08:03:44;;;;;;;0.10;0.10;;;;;;;4.56;100.00;96504.00;4898210;29;20163;-77
2022/11/06 08:06:30;;;;;;;0.10;0.10;;;;;;;4.53;100.00;96493.81;4896911;29;20182;-77
2022/11/06 08:09:15;;;;;;;0.20;0.20;;;;;;;4.75;100.00;96501.28;4895816;29;20047;-77
2022/11/06 08:12:01;;;;;;;0.10;0.10;;;;;;;4.81;100.00;96488.19;4897491;29;20059;-77
2022/11/06 08:14:47;;;;;;;0.20;0.20;;;;;;;4.69;100.00;96472.97;4898264;29;20104;-77
2022/11/06 08:17:33;;;;;;;0.20;0.20;;;;;;;4.74;100.00;96480.25;4899407;29;20052;-77
2022/11/06 08:20:19;;;;;;;0.10;0.10;;;;;;;4.83;100.00;96475.56;4899335;29;20056;-77
2022/11/06 08:23:07;;;;;;;0.10;0.10;;;;;;;4.90;100.00;96478.97;4897594;29;20545;-77
2022/11/06 08:25:59;;;;;;;0.20;0.20;;;;;;;5.04;100.00;96485.81;4898499;29;20100;-78
2022/11/06 08:28:45;;;;;;;0.20;0.20;;;;;;;4.95;100.00;96479.97;4899384;29;20052;-77
2022/11/06 08:31:30;;;;;;;0.13;0.13;;;;;;;5.00;100.00;96480.16;4898333;29;20286;-76
2022/11/06 08:34:16;;;;;;;0.15;0.15;;;;;;;5.12;100.00;96469.66;4896602;29;20067;-76
2022/11/06 08:37:02;;;;;;;0.20;0.20;;;;;;;4.99;100.00;96461.81;4897287;29;20072;-77
2022/11/06 08:39:48;;;;;;;0.10;0.10;;;;;;;5.09;100.00;96467.44;4898722;29;20092;-77
2022/11/06 08:42:34;;;;;;;0.10;0.10;;;;;;;5.14;100.00;96461.50;4898500;29;20072;-78
2022/11/06 08:45:20;;;;;;;0.10;0.10;;;;;;;5.08;100.00;96463.16;4898613;29;20114;-78
2022/11/06 08:48:07;;;;;;;0.10;0.10;;;;;;;5.02;100.00;96471.97;4896892;29;20036;-76
2022/11/06 08:50:53;;;;;;;0.10;0.10;;;;;;;5.02;100.00;96448.91;4896551;29;20053;-75
2022/11/06 08:53:38;;;;;;;0.20;0.20;;;;;;;5.09;100.00;96456.03;4896553;29;20583;-77
2022/11/06 08:56:24;;;;;;;0.10;0.10;;;;;;;5.23;100.00;96461.03;4900532;29;20143;-75
2022/11/06 08:59:11;;;;;;;0.20;0.20;;;;;;;5.25;100.00;96460.81;4897613;29;20054;-76
2022/11/06 09:01:56;;;;;;;0.20;0.20;;;;;;;5.36;100.00;96454.00;4897419;29;20048;-77
2022/11/06 09:04:42;;;;;;;0.10;0.10;;;;;;;5.36;100.00;96451.34;4898973;29;20640;-76
2022/11/06 09:07:28;;;;;;;0.10;0.10;;;;;;;5.41;100.00;96446.19;4898443;29;20525;-76
2022/11/06 09:10:14;;;;;;;0.10;0.10;;;;;;;5.45;100.00;96450.88;4902128;29;20860;-76
2022/11/06 09:13:00;;;;;;;0.10;0.10;;;;;;;5.45;100.00;96448.22;4899306;29;20415;-76
2022/11/06 09:15:46;;;;;;;0.20;0.20;;;;;;;5.60;100.00;96439.91;4903043;29;20244;-76
2022/11/06 09:18:31;;;;;;;0.20;0.20;;;;;;;5.44;100.00;96420.03;4898643;29;20518;-76
2022/11/06 09:21:19;;;;;;;0.20;0.20;;;;;;;6.01;100.00;96430.59;4898128;29;20648;-76
2022/11/06 09:24:05;;;;;;;0.20;0.20;;;;;;;6.05;100.00;96426.44;4898109;29;20414;-77
2022/11/06 09:26:51;;;;;;;0.30;0.30;;;;;;;7.69;100.00;96411.91;4903398;29;20052;-76
2022/11/06 09:29:42;;;;;;;0.10;0.10;;;;;;;8.37;100.00;96407.84;4898290;29;20112;-76
2022/11/06 09:32:28;;;;;;;0.30;0.30;;;;;;;9.04;100.00;96401.94;4892634;29;20119;-76
2022/11/06 09:35:14;;;;;;;0.20;0.20;;;;;;;9.45;100.00;96411.44;4902913;29;20440;-76
2022/11/06 09:38:05;;;;;;;0.30;0.30;;;;;;;9.71;100.00;96400.09;4901459;29;20058;-76
2022/11/06 09:40:56;;;;;;;0.30;0.30;;;;;;;11.64;100.00;96398.88;4896468;29;20052;-77
2022/11/06 09:43:42;;;;;;;0.30;0.30;;;;;;;12.49;100.00;96393.53;4900092;29;20567;-76
2022/11/06 09:46:32;;;;;;;0.40;0.30;;;;;;;12.68;100.00;96383.13;4911434;29;20047;-77
2022/11/06 09:49:39;;;;;;;0.30;0.30;;;;;;;13.07;100.00;96389.69;4899101;29;20131;-76
2022/11/06 09:52:37;;;;;;;0.25;0.25;;;;;;;13.04;100.00;96382.16;4896519;29;20094;-76
2022/11/06 09:55:29;;;;;;;0.22;0.22;;;;;;;12.67;100.00;96376.94;4894877;29;20139;-76
2022/11/06 09:58:25;;;;;;;0.30;0.30;;;;;;;12.73;100.00;96375.09;4889570;29;20044;-76
2022/11/06 10:01:29;;;;;;;0.20;0.20;;;;;;;13.22;100.00;96374.69;4897817;29;20056;-76
2022/11/06 10:04:37;;;;;;;0.22;0.22;;;;;;;14.41;99.28;96377.81;4899179;29;20519;-75
2022/11/06 10:07:44;;;;;;;0.20;0.20;;;;;;;14.06;99.34;96371.44;4902036;29;20036;-77
2022/11/06 10:10:42;;;;;;;0.13;0.13;;;;;;;13.89;100.00;96371.72;4898381;29;20476;-77
2022/11/06 10:13:46;;;;;;;0.20;0.20;;;;;;;11.39;100.00;96366.53;4899438;29;20044;-77
2022/11/06 10:16:47;;;;;;;0.20;0.20;;;;;;;11.22;100.00;96363.97;4896791;29;20497;-76
2022/11/06 10:19:47;;;;;;;0.20;0.20;;;;;;;13.88;100.00;96353.19;4910792;29;20044;-76
2022/11/06 10:22:40;;;;;;;0.10;0.10;;;;;;;11.69;100.00;96352.53;4896442;29;20416;-76
2022/11/06 10:25:38;;;;;;;0.10;0.10;;;;;;;9.79;100.00;96372.16;4894896;29;20051;-75
2022/11/06 10:28:51;;;;;;;0.30;0.30;;;;;;;12.41;100.00;96365.31;4895808;29;20040;-77
2022/11/06 10:32:03;;;;;;;0.10;0.10;;;;;;;12.35;100.00;96355.63;4896559;29;20040;-76
2022/11/06 10:34:53;;;;;;;;;;;;;;;13.87;100.00;96356.94;4897239;29;20040;-77
2022/11/06 10:37:47;;;;;;;0.30;0.30;;;;;;;14.52;99.49;96340.91;4898577;29;20139;-76
2022/11/06 10:40:34;;;;;;;0.30;0.30;;;;;;;16.74;86.70;96312.28;4879981;29;20056;-76
2022/11/06 10:43:42;;;;;;;0.22;0.20;;;;;;;17.12;76.00;96314.97;4899391;29;20126;-78
2022/11/06 10:46:43;;;;;;;0.20;0.20;;;;;;;16.37;83.42;96319.19;4909477;29;20047;-79
2022/11/06 10:49:43;;;;;;;0.20;0.20;;;;;;;15.45;88.73;96315.78;4900095;29;20067;-76
2022/11/06 10:52:55;;;;;;;0.10;0.10;;;;;;;14.07;97.98;96305.78;4893801;29;20110;-77
2022/11/06 10:56:05;;;;;;;0.20;0.20;;;;;;;12.61;100.00;96315.47;4898599;29;20040;-77
2022/11/06 10:58:51;;;;;;;0.20;0.20;;;;;;;13.33;100.00;96298.38;4898895;29;20620;-77
2022/11/06 11:01:37;;;;;;;0.30;0.30;;;;;;;13.99;99.28;96295.56;4898704;29;20083;-77
2022/11/06 11:04:23;;;;;;;0.20;0.20;;;;;;;15.98;86.27;96295.09;4898482;29;20103;-76
2022/11/06 11:07:14;;;;;;;0.10;0.10;;;;;;;13.46;99.77;96291.63;4900085;29;20329;-78
2022/11/06 11:10:31;;;;;;;0.20;0.20;;;;;;;11.95;100.00;96283.81;4897241;29;20361;-76
2022/11/06 11:13:19;;;;;;;0.10;0.10;;;;;;;11.91;100.00;96272.03;4895590;29;20531;-76
2022/11/06 11:16:14;;;;;;;0.20;0.20;;;;;;;11.44;100.00;96252.16;4897581;29;20052;-77
2022/11/06 11:19:23;;;;;;;0.20;0.20;;;;;;;12.20;100.00;96240.19;4897562;29;20143;-77
2022/11/06 11:22:15;;;;;;;0.15;0.15;;;;;;;11.56;100.00;96237.75;4897591;29;20100;-77
2022/11/06 11:25:05;;;;;;;0.20;0.20;;;;;;;11.82;100.00;96244.06;4890463;29;20052;-77
2022/11/06 11:27:51;;;;;;;0.10;0.10;;;;;;;11.43;100.00;96222.94;4899245;29;20274;-76
2022/11/06 11:30:36;;;;;;;0.10;0.10;;;;;;;10.53;100.00;96213.97;4555797;29;10000205;-77
2022/11/06 11:33:25;;;;;;;0.20;0.20;;;;;;;10.90;100.00;96211.34;4558334;29;10001152;-77
2022/11/06 11:36:11;;;;;;;0.10;0.10;;;;;;;12.50;99.08;96205.38;4895495;29;20052;-78
2022/11/06 11:38:56;;;;;;;0.10;0.10;;;;;;;10.73;100.00;96200.75;4894809;29;20537;-77
2022/11/06 11:41:42;;;;;;;0.10;0.10;;;;;;;9.70;100.00;96200.75;4896084;29;20168;-76
2022/11/06 11:44:28;;;;;;;0.10;0.10;;;;;;;9.68;100.00;96180.69;4894816;29;20051;-78
2022/11/06 11:47:23;;;;;;;0.13;0.13;;;;;;;10.75;100.00;96163.88;4896871;29;20052;-77
2022/11/06 11:50:16;;;;;;;0.20;0.20;;;;;;;12.95;96.81;96158.16;4895072;29;20511;-78
2022/11/06 11:53:25;;;;;;;0.10;0.10;;;;;;;14.52;85.46;96147.84;4897306;29;20484;-76
2022/11/06 11:56:17;;;;;;;0.10;0.10;;;;;;;13.51;86.90;96154.56;4898470;29;20059;-78
2022/11/06 11:59:03;;;;;;;0.10;0.10;;;;;;;13.81;85.03;96150.94;4897222;29;20507;-76
2022/11/06 12:01:51;;;;;;;0.20;0.20;;;;;;;12.05;96.81;96143.59;4895719;29;20127;-76
2022/11/06 12:04:42;;;;;;;0.10;0.10;;;;;;;11.13;100.00;96164.66;4894090;29;20078;-77
2022/11/06 12:07:34;;;;;;;0.10;0.10;;;;;;;10.47;100.00;96148.09;4895558;29;20854;-77
2022/11/06 12:10:36;;;;;;;0.10;0.10;;;;;;;10.01;100.00;96134.28;4894601;29;20048;-78
2022/11/06 12:13:22;;;;;;;;;;;;;;;12.14;100.00;96131.28;4895140;29;20661;-78
2022/11/06 12:16:18;;;;;;;0.20;0.20;;;;;;;13.40;90.86;96145.75;4896865;29;20034;-77
2022/11/06 12:19:07;;;;;;;0.10;0.10;;;;;;;11.42;100.00;96163.19;4896935;29;20083;-78
2022/11/06 12:21:59;;;;;;;0.10;0.10;;;;;;;10.95;100.00;96157.81;4896686;29;20141;-77
2022/11/06 12:24:45;;;;;;;0.10;0.10;;;;;;;10.78;100.00;96146.47;4896791;29;20048;-77
2022/11/06 12:27:36;;;;;;;0.20;0.20;;;;;;;12.08;100.00;96138.53;4900926;29;20051;-77
2022/11/06 12:30:22;;;;;;;0.10;0.10;;;;;;;11.53;100.00;96131.09;4899002;29;20567;-77
2022/11/06 12:33:37;;;;;;;0.10;0.10;;;;;;;11.82;100.00;96145.69;4898568;29;20052;-77
2022/11/06 12:36:27;;;;;;;0.10;0.10;;;;;;;12.63;95.60;96138.84;4895848;29;20052;-76
2022/11/06 12:39:25;;;;;;;0.10;0.10;;;;;;;13.72;88.30;96123.03;4888977;29;20075;-78
2022/11/06 12:42:12;;;;;;;0.10;0.10;;;;;;;11.77;100.00;96100.09;4895350;29;20511;-77
2022/11/06 12:44:58;;;;;;;0.10;0.10;;;;;;;10.43;100.00;96097.00;4900079;28;20044;-76
2022/11/06 12:47:59;;;;;;;0.10;0.10;;;;;;;10.29;100.00;96091.28;4897639;29;20471;-76
2022/11/06 12:51:06;;;;;;;0.10;0.10;;;;;;;10.02;100.00;96083.22;4900101;29;20040;-76
2022/11/06 12:54:09;;;;;;;0.10;0.10;;;;;;;9.53;100.00;96074.47;4895712;29;20060;-76
2022/11/06 12:57:04;;;;;;;0.10;0.10;;;;;;;9.58;100.00;96063.06;4895829;29;20092;-76
2022/11/06 13:00:08;;;;;;;0.10;0.10;;;;;;;9.16;100.00;96072.44;4898130;29;20269;-77
2022/11/06 13:03:27;;;;;;;0.20;0.20;;;;;;;9.19;100.00;96060.47;4895961;29;20135;-76
2022/11/06 13:06:53;;;;;;;0.10;0.10;;;;;;;9.11;100.00;96056.38;4896967;29;20083;-77
2022/11/06 13:09:46;;;;;;;0.13;0.13;;;;;;;8.94;100.00;96042.25;4896194;29;20051;-77
2022/11/06 13:12:53;;;;;;;0.10;0.10;;;;;;;8.63;100.00;96031.19;4910788;29;20044;-77
2022/11/06 13:15:47;;;;;;;0.10;0.10;;;;;;;8.70;100.00;96019.53;4897876;29;20080;-76
2022/11/06 13:18:47;;;;;;;0.10;0.10;;;;;;;8.73;100.00;96019.06;4896892;29;20292;-76
2022/11/06 13:21:37;;;;;;;0.10;0.10;;;;;;;8.30;100.00;96031.22;4897884;29;20048;-75
2022/11/06 13:24:56;;;;;;;0.10;0.10;;;;;;;8.38;100.00;96012.19;4897104;29;20119;-76
2022/11/06 13:27:58;;;;;;;0.10;0.10;;;;;;;8.42;100.00;96009.84;4896379;29;20149;-76
2022/11/06 13:30:45;;;;;;;0.10;0.10;;;;;;;8.19;100.00;95986.84;4897582;29;20144;-76
2022/11/06 13:33:55;;;;;;;0.10;0.10;;;;;;;8.17;100.00;95987.09;4898720;29;20111;-75
2022/11/06 13:36:41;;;;;;;0.10;0.10;;;;;;;8.19;100.00;95998.28;4889324;29;20044;-76
2022/11/06 13:39:33;;;;;;;0.10;0.10;;;;;;;7.99;100.00;96006.78;4889376;29;20540;-76